Time;durP1;ratioP1;P1;durP2;ratioP2;P2;SDS_P1;SDS_P2;PMS_P1;PMS_P2;Temp;Humidity;BMP_temperature;BMP_pressure;BME280_temperature;BME280_humidity;BME280_pressure;Samples;Min_cycle;Max_cycle;Signal;HPM_P1;HPM_P2
2022/02/23 00:00:11;;;;;;;;;5.75;5.75;;;;;13.45;61.76;102063.84;2069118;28;47803;-55
2022/02/23 00:01:11;;;;;;;;;6.75;5.00;;;;;13.45;61.68;102058.53;2070674;28;47814;-57
2022/02/23 00:02:12;;;;;;;;;4.00;4.00;;;;;13.43;61.77;102050.53;2065679;28;48081;-57
2022/02/23 00:03:12;;;;;;;;;2.67;1.67;;;;;13.45;61.79;102048.75;2071443;28;47544;-57
2022/02/23 00:04:13;;;;;;;;;8.00;6.00;;;;;13.44;61.71;102046.97;2069250;28;46162;-56
2022/02/23 00:05:13;;;;;;;;;5.00;5.00;;;;;13.44;61.74;102040.75;2071556;28;47642;-56
2022/02/23 00:06:14;;;;;;;;;4.67;4.67;;;;;13.45;61.76;102040.72;2068649;28;47942;-57
2022/02/23 00:07:14;;;;;;;;;7.00;5.75;;;;;13.44;61.51;102052.31;2071249;28;47697;-54
2022/02/23 00:08:15;;;;;;;;;5.67;5.00;;;;;13.44;61.75;102049.63;2066027;28;48229;-58
2022/02/23 00:09:15;;;;;;;;;4.00;4.00;;;;;13.44;61.58;102051.44;2071366;28;48396;-56
2022/02/23 00:10:16;;;;;;;;;9.67;9.67;;;;;13.44;61.66;102048.75;2066105;28;47567;-57
2022/02/23 00:11:16;;;;;;;;;7.00;6.00;;;;;13.42;61.81;102051.44;2071321;28;47523;-56
2022/02/23 00:12:17;;;;;;;;;6.33;6.00;;;;;13.42;61.78;102050.56;2068989;28;47286;-56
2022/02/23 00:13:17;;;;;;;;;7.67;7.00;;;;;13.41;61.74;102052.34;2071280;28;47810;-59
2022/02/23 00:14:17;;;;;;;;;9.33;7.00;;;;;13.40;61.81;102055.03;2065837;28;46702;-55
2022/02/23 00:15:18;;;;;;;;;3.67;3.67;;;;;13.40;61.74;102053.25;2070861;28;47671;-57
2022/02/23 00:16:18;;;;;;;;;6.33;5.00;;;;;13.39;61.74;102050.63;2068898;28;47300;-56
2022/02/23 00:17:20;;;;;;;;;7.67;5.00;;;;;13.39;61.83;102053.28;2070342;28;47308;-53
2022/02/23 00:18:21;;;;;;;;;5.00;4.75;;;;;13.38;61.81;102049.72;2069906;28;47740;-56
2022/02/23 00:19:21;;;;;;;;;0.67;0.67;;;;;13.37;61.95;102053.31;2070521;28;47527;-54
2022/02/23 00:20:22;;;;;;;;;6.33;5.00;;;;;13.35;61.85;102052.44;2065802;28;48007;-56
2022/02/23 00:21:23;;;;;;;;;5.67;5.67;;;;;13.36;61.85;102058.66;2070398;28;47762;-56
2022/02/23 00:22:24;;;;;;;;;4.67;4.67;;;;;13.36;61.81;102056.00;2067068;28;46546;-58
2022/02/23 00:23:24;;;;;;;;;4.25;4.00;;;;;13.35;61.94;102054.22;2069576;28;47416;-55
2022/02/23 00:24:25;;;;;;;;;8.33;7.67;;;;;13.34;61.73;102053.34;2067492;28;48157;-56
2022/02/23 00:25:26;;;;;;;;;4.50;4.25;;;;;13.34;61.89;102055.09;2069833;28;47829;-56
2022/02/23 00:26:26;;;;;;;;;6.67;5.00;;;;;13.34;61.88;102052.44;2070845;28;47791;-55
2022/02/23 00:27:27;;;;;;;;;5.00;5.00;;;;;13.31;62.35;102053.34;2074813;28;48373;-57
2022/02/23 00:28:27;;;;;;;;;6.75;6.75;;;;;13.31;61.76;102060.47;2067595;28;47483;-57
2022/02/23 00:29:28;;;;;;;;;4.67;4.67;;;;;13.29;61.90;102063.16;2069245;28;48052;-55
2022/02/23 00:30:28;;;;;;;;;3.33;3.33;;;;;13.29;61.96;102051.63;2067076;28;47462;-56
2022/02/23 00:31:29;;;;;;;;;8.00;5.67;;;;;13.27;61.86;102064.09;2067494;28;47469;-56
2022/02/23 00:32:30;;;;;;;;;5.33;3.00;;;;;13.28;62.04;102049.84;2069719;28;48015;-57
2022/02/23 00:33:31;;;;;;;;;4.75;4.75;;;;;13.27;62.10;102054.31;2070056;28;47700;-56
2022/02/23 00:34:31;;;;;;;;;5.67;5.67;;;;;13.26;61.80;102047.22;2071943;28;47060;-57
2022/02/23 00:35:32;;;;;;;;;6.00;5.67;;;;;13.24;61.75;102044.56;2070891;28;47690;-56
2022/02/23 00:36:33;;;;;;;;;7.33;5.67;;;;;13.24;62.12;102046.34;2071600;28;48047;-55
2022/02/23 00:37:34;;;;;;;;;4.75;4.75;;;;;13.23;62.09;102056.13;2061122;28;47632;-55
2022/02/23 00:38:34;;;;;;;;;6.00;6.00;;;;;13.23;61.88;102050.78;2062915;28;47946;-56
2022/02/23 00:39:35;;;;;;;;;6.00;6.00;;;;;13.22;62.01;102046.38;2070336;28;47523;-56
2022/02/23 00:40:35;;;;;;;;;5.67;4.67;;;;;13.22;62.04;102056.16;2069123;28;47456;-56
2022/02/23 00:41:35;;;;;;;;;7.00;7.00;;;;;13.21;62.02;102054.34;2070264;28;47906;-56
2022/02/23 00:42:36;;;;;;;;;5.00;4.33;;;;;13.21;62.01;102049.03;2069816;28;47738;-57
2022/02/23 00:43:36;;;;;;;;;5.33;5.33;;;;;13.20;61.93;102048.13;2070426;28;47701;-57
2022/02/23 00:44:37;;;;;;;;;10.00;5.67;;;;;13.19;61.94;102050.81;2072600;28;47459;-55
2022/02/23 00:45:37;;;;;;;;;6.67;6.00;;;;;13.20;62.03;102052.59;2069977;28;47509;-57
2022/02/23 00:46:38;;;;;;;;;7.33;3.67;;;;;13.17;62.12;102053.47;2060392;28;47967;-57
2022/02/23 00:47:38;;;;;;;;;5.00;5.00;;;;;13.17;62.05;102055.25;2061075;28;47913;-57
2022/02/23 00:48:39;;;;;;;;;7.33;6.00;;;;;13.16;61.88;102057.06;2070081;28;47970;-56
2022/02/23 00:49:39;;;;;;;;;7.67;6.00;;;;;13.16;62.09;102058.84;2069985;28;47533;-55
2022/02/23 00:50:39;;;;;;;;;10.00;7.00;;;;;13.16;62.25;102050.84;2071576;28;47059;-55
2022/02/23 00:51:40;;;;;;;;;11.33;9.00;;;;;13.16;62.05;102054.38;2070096;28;47616;-56
2022/02/23 00:52:41;;;;;;;;;4.33;3.33;;;;;13.16;62.17;102053.50;2069734;28;47545;-54
2022/02/23 00:53:41;;;;;;;;;6.33;6.00;;;;;13.15;62.08;102052.63;2069758;28;47776;-57
2022/02/23 00:54:41;;;;;;;;;6.00;6.00;;;;;13.14;62.01;102053.53;2070666;28;47603;-58
2022/02/23 00:55:42;;;;;;;;;9.67;6.00;;;;;13.14;62.10;102055.31;2070987;28;47537;-57
2022/02/23 00:56:42;;;;;;;;;5.33;5.00;;;;;13.13;62.03;102050.88;2072097;28;47768;-57
2022/02/23 00:57:43;;;;;;;;;6.33;4.33;;;;;13.13;62.10;102054.44;2069466;28;46195;-55
2022/02/23 00:58:43;;;;;;;;;6.67;5.00;;;;;13.13;62.22;102051.75;2070306;28;47606;-57
2022/02/23 00:59:44;;;;;;;;;7.00;6.67;;;;;13.14;62.11;102057.97;2069410;28;47628;-56
2022/02/23 01:00:45;;;;;;;;;5.50;4.25;;;;;13.14;62.30;102055.31;2070260;28;47960;-56
2022/02/23 01:01:45;;;;;;;;;4.67;4.00;;;;;13.13;62.18;102051.75;2069094;28;48045;-57
2022/02/23 01:02:46;;;;;;;;;4.67;3.67;;;;;13.13;62.24;102059.75;2070583;28;47420;-57
2022/02/23 01:03:46;;;;;;;;;8.00;6.00;;;;;13.13;62.20;102062.41;2070131;28;47405;-56
2022/02/23 01:04:47;;;;;;;;;6.67;5.00;;;;;13.12;62.05;102060.66;2072261;28;47278;-56
2022/02/23 01:05:47;;;;;;;;;6.00;5.33;;;;;13.12;62.18;102066.00;2068896;28;47372;-57
2022/02/23 01:06:47;;;;;;;;;7.67;5.67;;;;;13.12;61.94;102068.66;2070742;28;47515;-56
2022/02/23 01:07:48;;;;;;;;;4.00;4.00;;;;;13.12;62.23;102062.44;2071072;28;47588;-57
2022/02/23 01:08:49;;;;;;;;;12.00;7.00;;;;;13.11;62.13;102064.22;2071170;28;47548;-57
2022/02/23 01:09:49;;;;;;;;;5.00;4.75;;;;;13.12;62.21;102070.44;2068684;28;47609;-57
2022/02/23 01:10:50;;;;;;;;;4.33;4.33;;;;;13.11;62.18;102072.22;2070741;28;47816;-56
2022/02/23 01:11:50;;;;;;;;;4.67;4.00;;;;;13.11;62.13;102063.34;2070801;28;47381;-57
2022/02/23 01:12:52;;;;;;;;;8.00;6.67;;;;;13.12;62.38;102068.66;2072094;28;47417;-57
2022/02/23 01:13:52;;;;;;;;;5.00;4.00;;;;;13.11;62.21;102064.22;2068211;28;46101;-56
2022/02/23 01:14:53;;;;;;;;;6.00;6.00;;;;;13.10;62.17;102062.47;2071501;28;47569;-55
2022/02/23 01:15:54;;;;;;;;;5.00;5.00;;;;;13.09;62.23;102058.03;2068000;28;47670;-55
2022/02/23 01:16:54;;;;;;;;;6.50;6.50;;;;;13.09;62.20;102058.03;2071619;28;47773;-57
2022/02/23 01:17:55;;;;;;;;;3.00;3.00;;;;;13.09;62.25;102067.81;2067474;28;48309;-56
2022/02/23 01:18:56;;;;;;;;;4.00;4.00;;;;;13.09;62.60;102066.03;2071842;28;47662;-54
2022/02/23 01:19:56;;;;;;;;;6.00;4.00;;;;;13.08;62.43;102069.56;2066378;28;47748;-56
2022/02/23 01:20:56;;;;;;;;;5.67;5.67;;;;;13.09;62.45;102062.47;2072167;28;47496;-58
2022/02/23 01:21:57;;;;;;;;;6.33;5.00;;;;;13.09;62.31;102067.81;2067273;28;48150;-56
2022/02/23 01:22:59;;;;;;;;;5.00;5.00;;;;;13.08;62.35;102069.56;2071929;28;48110;-56
2022/02/23 01:24:00;;;;;;;;;4.75;4.00;;;;;13.09;62.11;102078.47;2070145;28;47653;-57
2022/02/23 01:25:02;;;;;;;;;6.00;5.00;;;;;13.07;62.45;102083.78;2071362;28;47630;-57
2022/02/23 01:26:03;;;;;;;;;4.50;4.50;;;;;13.07;62.34;102077.56;2066641;28;47389;-56
2022/02/23 01:27:04;;;;;;;;;5.00;4.00;;;;;13.06;62.31;102084.69;2073935;28;47612;-57
2022/02/23 01:28:06;;;;;;;;;5.00;4.00;;;;;13.06;62.29;102079.34;2066562;28;46844;-56
2022/02/23 01:29:07;;;;;;;;;7.25;6.25;;;;;13.07;62.36;102077.56;2062763;28;47984;-57
2022/02/23 01:30:08;;;;;;;;;5.00;5.00;;;;;13.07;62.40;102077.56;2061797;28;47192;-57
2022/02/23 01:31:08;;;;;;;;;6.00;4.25;;;;;13.06;62.33;102081.16;2072078;28;47939;-57
2022/02/23 01:32:09;;;;;;;;;8.33;6.00;;;;;13.05;62.66;102079.38;2070386;28;47727;-56
2022/02/23 01:33:09;;;;;;;;;7.00;6.00;;;;;13.05;62.44;102079.38;2071890;28;47413;-56
2022/02/23 01:34:10;;;;;;;;;5.00;5.00;;;;;13.04;62.87;102078.50;2067144;28;47349;-56
2022/02/23 01:35:11;;;;;;;;;5.00;4.00;;;;;13.03;62.46;102079.41;2072512;28;48034;-57
2022/02/23 01:36:11;;;;;;;;;4.50;4.50;;;;;13.03;62.39;102067.84;2066670;28;47762;-56
2022/02/23 01:37:13;;;;;;;;;2.67;2.67;;;;;13.03;62.47;102075.84;2072106;28;47509;-56
2022/02/23 01:38:14;;;;;;;;;6.25;5.00;;;;;13.02;62.34;102074.97;2066512;28;47661;-56
2022/02/23 01:39:14;;;;;;;;;6.67;6.67;;;;;13.01;62.45;102081.19;2072011;28;47992;-54
2022/02/23 01:40:15;;;;;;;;;6.33;5.00;;;;;13.02;62.35;102074.09;2068714;28;47553;-54
2022/02/23 01:41:19;;;;;;;;;10.00;6.33;;;;;12.98;62.49;102070.59;2071994;28;48218;-55
2022/02/23 01:42:19;;;;;;;;;4.25;4.25;;;;;12.99;62.45;102077.69;2060983;28;47660;-57
2022/02/23 01:43:20;;;;;;;;;5.33;3.33;;;;;12.98;62.36;102075.91;2054499;28;47764;-54
2022/02/23 01:44:20;;;;;;;;;5.33;5.00;;;;;12.98;62.51;102075.91;2070535;28;47205;-57
2022/02/23 01:45:20;;;;;;;;;7.00;5.00;;;;;12.96;62.53;102081.25;2070818;28;47896;-56
2022/02/23 01:46:21;;;;;;;;;4.00;3.00;;;;;12.96;62.57;102077.72;2069298;28;47285;-57
2022/02/23 01:47:22;;;;;;;;;5.67;4.33;;;;;12.97;62.58;102082.13;2071942;28;47458;-58
2022/02/23 01:48:23;;;;;;;;;5.67;5.00;;;;;12.97;62.43;102082.13;2069047;28;47207;-54
2022/02/23 01:49:24;;;;;;;;;6.00;6.00;;;;;12.95;62.48;102084.78;2070828;28;47968;-57
2022/02/23 01:50:24;;;;;;;;;5.33;4.00;;;;;12.96;62.52;102089.25;2067966;28;47893;-57
2022/02/23 01:51:25;;;;;;;;;7.33;5.33;;;;;12.95;62.49;102082.13;2070963;28;47394;-56
2022/02/23 01:52:26;;;;;;;;;6.00;6.00;;;;;12.94;62.49;102090.13;2060146;28;46060;-57
2022/02/23 01:53:27;;;;;;;;;5.50;5.50;;;;;12.95;62.31;102091.91;2056445;28;47938;-57
2022/02/23 01:54:27;;;;;;;;;3.00;3.00;;;;;12.93;62.48;102089.25;2070040;28;47633;-56
2022/02/23 01:55:28;;;;;;;;;6.00;5.00;;;;;12.93;62.36;102089.25;2070201;28;47435;-56
2022/02/23 01:56:28;;;;;;;;;5.00;5.00;;;;;12.92;62.43;102084.84;2070471;28;47557;-55
2022/02/23 01:57:29;;;;;;;;;5.00;4.67;;;;;12.93;62.43;102085.72;2071841;28;46364;-58
2022/02/23 01:58:29;;;;;;;;;5.00;5.00;;;;;12.92;62.62;102094.59;2070674;28;47890;-57
2022/02/23 01:59:30;;;;;;;;;5.00;4.00;;;;;12.91;62.41;102090.19;2070272;28;47896;-58
2022/02/23 02:00:31;;;;;;;;;4.67;4.67;;;;;12.91;62.37;102087.50;2072235;28;48046;-55
2022/02/23 02:01:31;;;;;;;;;5.00;5.00;;;;;12.92;62.45;102097.28;2070721;28;47584;-57
2022/02/23 02:02:32;;;;;;;;;9.33;5.67;;;;;12.91;62.39;102087.50;2061585;28;48066;-56
2022/02/23 02:03:32;;;;;;;;;8.67;6.00;;;;;12.90;62.38;102091.06;2061364;28;48133;-56
2022/02/23 02:04:33;;;;;;;;;4.67;4.00;;;;;12.90;62.36;102091.06;2071286;28;47670;-56
2022/02/23 02:05:34;;;;;;;;;6.00;5.25;;;;;12.90;62.42;102093.75;2070489;28;47649;-57
2022/02/23 02:06:34;;;;;;;;;4.00;3.33;;;;;12.90;62.52;102099.06;2070861;28;47868;-58
2022/02/23 02:07:36;;;;;;;;;6.00;4.33;;;;;12.90;62.53;102096.41;2070071;28;47897;-56
2022/02/23 02:08:36;;;;;;;;;9.00;6.50;;;;;12.89;62.37;102091.97;2069707;28;47728;-56
2022/02/23 02:09:37;;;;;;;;;5.00;5.00;;;;;12.89;62.13;102094.66;2070470;28;47522;-56
2022/02/23 02:10:38;;;;;;;;;7.00;5.00;;;;;12.87;62.37;102107.97;2070944;28;47678;-57
2022/02/23 02:11:38;;;;;;;;;7.00;6.33;;;;;12.86;62.52;102108.88;2069200;28;46378;-56
2022/02/23 02:12:39;;;;;;;;;5.33;5.00;;;;;12.87;62.50;102109.75;2069711;28;47392;-57
2022/02/23 02:13:39;;;;;;;;;6.50;5.50;;;;;12.86;62.55;102108.88;2069466;28;47590;-55
2022/02/23 02:14:40;;;;;;;;;6.33;5.33;;;;;12.86;62.36;102108.00;2069269;28;47852;-56
2022/02/23 02:15:42;;;;;;;;;5.33;3.67;;;;;12.86;62.47;102102.66;2071567;28;47690;-55
2022/02/23 02:16:42;;;;;;;;;9.25;7.75;;;;;12.86;62.36;102097.34;2071610;28;47475;-55
2022/02/23 02:17:42;;;;;;;;;6.00;4.67;;;;;12.84;62.43;102097.34;2072308;28;47440;-56
2022/02/23 02:18:43;;;;;;;;;6.00;5.00;;;;;12.84;62.38;102089.38;2071734;28;47111;-56
2022/02/23 02:19:44;;;;;;;;;4.67;4.67;;;;;12.83;62.37;102097.34;2069024;28;47882;-57
2022/02/23 02:20:44;;;;;;;;;2.00;2.00;;;;;12.82;62.50;102103.56;2070832;28;47617;-55
2022/02/23 02:21:57;;;;;;;;;7.67;5.00;;;;;12.82;62.43;102109.78;2071756;28;46702;-55
2022/02/23 02:22:57;;;;;;;;;6.50;5.00;;;;;12.83;62.50;102121.31;2072101;28;47111;-55
2022/02/23 02:23:57;;;;;;;;;7.67;5.67;;;;;12.82;62.51;102117.78;2072280;28;47005;-57
2022/02/23 02:24:59;;;;;;;;;6.00;5.00;;;;;12.83;62.39;102121.31;2072196;28;48019;-56
2022/02/23 02:26:00;;;;;;;;;6.00;5.50;;;;;12.82;62.37;102116.91;2071702;28;47768;-56
2022/02/23 02:27:02;;;;;;;;;5.00;5.00;;;;;12.82;62.33;102116.91;2074430;28;48009;-54
2022/02/23 02:28:04;;;;;;;;;4.25;4.00;;;;;12.81;62.57;102112.47;2079239;28;47564;-54
2022/02/23 02:29:04;;;;;;;;;3.50;3.50;;;;;12.82;62.50;102111.56;2072272;28;47956;-54
2022/02/23 02:30:05;;;;;;;;;5.33;4.33;;;;;12.81;62.54;102104.47;2071737;28;47680;-56
2022/02/23 02:31:06;;;;;;;;;5.25;5.25;;;;;12.80;62.40;102108.91;2071488;28;47882;-56
2022/02/23 02:32:08;;;;;;;;;6.33;4.00;;;;;12.80;62.46;102114.25;2071341;28;47587;-55
2022/02/23 02:33:09;;;;;;;;;6.25;4.25;;;;;12.79;62.48;102106.28;2071688;28;47213;-55
2022/02/23 02:34:09;;;;;;;;;4.00;4.00;;;;;12.78;62.84;102110.72;2072160;28;48067;-55
2022/02/23 02:35:12;;;;;;;;;5.67;5.67;;;;;12.78;62.50;102108.06;2071558;28;48409;-56
2022/02/23 02:36:12;;;;;;;;;4.25;4.25;;;;;12.77;62.52;102105.41;2071718;28;47959;-56
2022/02/23 02:37:13;;;;;;;;;5.67;5.00;;;;;12.76;62.48;102104.53;2071373;28;47803;-57
2022/02/23 02:38:14;;;;;;;;;6.50;4.00;;;;;12.75;62.64;102102.75;2071871;28;47630;-57
2022/02/23 02:39:19;;;;;;;;;6.00;5.00;;;;;12.75;62.35;102108.09;2071727;28;47555;-57
2022/02/23 02:40:19;;;;;;;;;1.00;1.00;;;;;12.75;62.55;102108.09;2063610;28;47990;-56
2022/02/23 02:41:20;;;;;;;;;6.00;4.00;;;;;12.74;62.50;102101.00;2067511;28;47744;-53
2022/02/23 02:42:20;;;;;;;;;4.33;4.00;;;;;12.72;62.36;102105.47;2071932;28;47529;-57
2022/02/23 02:43:21;;;;;;;;;7.00;5.33;;;;;12.72;62.48;102102.78;2072234;28;48340;-57
2022/02/23 02:44:22;;;;;;;;;7.00;5.33;;;;;12.72;62.64;102107.25;2071760;28;47780;-57
2022/02/23 02:45:24;;;;;;;;;5.00;4.00;;;;;12.70;62.46;102109.88;2071264;28;47302;-57
2022/02/23 02:46:25;;;;;;;;;4.00;4.00;;;;;12.71;62.36;102110.81;2071346;28;48040;-55
2022/02/23 02:47:25;;;;;;;;;6.67;6.00;;;;;12.70;62.67;102109.00;2071812;28;47483;-54
2022/02/23 02:48:25;;;;;;;;;5.67;4.33;;;;;12.69;62.51;102105.47;2071478;28;47315;-55
2022/02/23 02:49:27;;;;;;;;;7.00;6.00;;;;;12.68;62.57;102107.25;2069672;28;46718;-57
2022/02/23 02:50:28;;;;;;;;;6.25;5.25;;;;;12.68;62.70;102107.25;2069993;28;48029;-57
2022/02/23 02:51:28;;;;;;;;;4.25;3.25;;;;;12.68;62.46;102109.91;2071890;28;47697;-55
2022/02/23 02:52:28;;;;;;;;;4.00;4.00;;;;;12.68;62.48;102103.69;2071983;28;48257;-58
2022/02/23 02:53:29;;;;;;;;;5.33;4.00;;;;;12.68;62.57;102106.34;2071607;28;47759;-58
2022/02/23 02:54:30;;;;;;;;;3.67;2.67;;;;;12.68;62.60;102098.38;2071798;28;48032;-57
2022/02/23 02:55:31;;;;;;;;;5.75;5.75;;;;;12.68;62.44;102098.38;2071485;28;47973;-57
2022/02/23 02:56:32;;;;;;;;;4.67;4.67;;;;;12.67;62.30;102100.16;2071684;28;47826;-55
2022/02/23 02:57:32;;;;;;;;;7.00;5.75;;;;;12.66;62.36;102094.84;2071208;28;48146;-57
2022/02/23 02:58:33;;;;;;;;;10.67;6.00;;;;;12.66;62.46;102102.81;2071911;28;47102;-58
2022/02/23 02:59:33;;;;;;;;;6.33;4.67;;;;;12.64;62.50;102099.31;2071849;28;47120;-57
2022/02/23 03:00:33;;;;;;;;;7.00;7.00;;;;;12.63;62.57;102100.19;2071806;28;47628;-56
2022/02/23 03:01:35;;;;;;;;;5.00;5.00;;;;;12.64;62.66;102101.97;2071936;28;47208;-56
2022/02/23 03:02:36;;;;;;;;;7.00;6.75;;;;;12.63;62.48;102108.19;2071782;28;48178;-57
2022/02/23 03:03:36;;;;;;;;;7.75;5.25;;;;;12.63;62.77;102110.84;2071466;28;47855;-56
2022/02/23 03:04:36;;;;;;;;;5.67;5.00;;;;;12.62;62.63;102112.63;2071822;28;47647;-57
2022/02/23 03:05:37;;;;;;;;;6.33;5.00;;;;;12.62;62.61;102114.41;2071570;28;47487;-56
2022/02/23 03:06:37;;;;;;;;;7.67;6.67;;;;;12.61;62.50;102108.19;2071451;28;47478;-57
2022/02/23 03:07:38;;;;;;;;;4.33;4.33;;;;;12.61;62.60;102102.00;2071596;28;47975;-55
2022/02/23 03:08:38;;;;;;;;;6.00;6.00;;;;;12.60;62.64;102106.44;2071849;28;47362;-55
2022/02/23 03:09:38;;;;;;;;;4.67;4.33;;;;;12.60;62.76;102103.78;2071409;28;47602;-56
2022/02/23 03:10:40;;;;;;;;;7.00;7.00;;;;;12.61;62.66;102102.00;2071402;28;47871;-55
2022/02/23 03:11:41;;;;;;;;;9.75;7.00;;;;;12.61;62.53;102104.66;2071888;28;47434;-54
2022/02/23 03:12:41;;;;;;;;;5.00;4.67;;;;;12.59;62.68;102106.47;2071611;28;47869;-55
2022/02/23 03:13:42;;;;;;;;;6.67;6.67;;;;;12.59;62.57;102110.00;2071807;28;47920;-57
2022/02/23 03:14:42;;;;;;;;;8.00;5.00;;;;;12.59;62.72;102111.78;2071314;28;46132;-55
2022/02/23 03:15:44;;;;;;;;;6.67;5.67;;;;;12.58;62.64;102110.91;2071478;28;47530;-56
2022/02/23 03:16:46;;;;;;;;;4.75;4.00;;;;;12.57;62.68;102108.22;2071631;28;47809;-57
2022/02/23 03:17:46;;;;;;;;;5.00;5.00;;;;;12.57;62.58;102114.44;2071649;28;45786;-56
2022/02/23 03:18:46;;;;;;;;;7.33;5.67;;;;;12.57;63.04;102116.22;2069726;28;47626;-56
2022/02/23 03:19:47;;;;;;;;;6.33;5.33;;;;;12.56;62.77;102109.13;2066639;28;47986;-54
2022/02/23 03:20:47;;;;;;;;;5.00;4.33;;;;;12.55;62.74;102113.56;2071719;28;47743;-56
2022/02/23 03:21:48;;;;;;;;;5.67;5.67;;;;;12.54;62.93;102111.78;2070020;28;47950;-55
2022/02/23 03:22:48;;;;;;;;;10.00;7.67;;;;;12.55;62.87;102115.34;2070343;28;47368;-56
2022/02/23 03:23:48;;;;;;;;;5.00;4.67;;;;;12.53;62.70;102112.69;2071299;28;48014;-55
2022/02/23 03:24:49;;;;;;;;;8.00;6.00;;;;;12.53;62.59;102109.16;2062061;28;47502;-57
2022/02/23 03:25:49;;;;;;;;;8.33;6.00;;;;;12.52;62.79;102116.25;2062030;28;47597;-57
2022/02/23 03:26:50;;;;;;;;;5.33;5.33;;;;;12.53;62.82;102119.81;2073077;28;47815;-54
2022/02/23 03:27:50;;;;;;;;;6.00;5.00;;;;;12.53;62.80;102119.81;2076252;28;47752;-56
2022/02/23 03:28:51;;;;;;;;;7.00;5.00;;;;;12.52;62.83;102110.94;2071381;28;46897;-56
2022/02/23 03:29:51;;;;;;;;;8.00;6.33;;;;;12.52;62.71;102118.03;2072116;28;47589;-56
2022/02/23 03:30:52;;;;;;;;;6.00;6.00;;;;;12.51;62.85;102117.16;2061788;28;45747;-55
2022/02/23 03:31:52;;;;;;;;;9.00;5.00;;;;;12.49;62.79;102124.28;2055845;28;48135;-56
2022/02/23 03:32:53;;;;;;;;;4.33;4.33;;;;;12.48;62.67;102117.19;2068017;28;47767;-55
2022/02/23 03:33:53;;;;;;;;;9.33;6.00;;;;;12.48;62.65;102121.63;2070977;28;47316;-55
2022/02/23 03:34:54;;;;;;;;;7.00;6.00;;;;;12.46;62.77;102113.66;2070979;28;48070;-54
2022/02/23 03:35:54;;;;;;;;;6.00;4.67;;;;;12.45;62.67;102116.28;2071432;28;47835;-56
2022/02/23 03:36:54;;;;;;;;;5.33;5.33;;;;;12.45;62.83;102118.97;2071136;28;47734;-56
2022/02/23 03:37:55;;;;;;;;;5.67;5.33;;;;;12.45;62.77;102118.97;2070157;28;47291;-56
2022/02/23 03:38:56;;;;;;;;;6.00;6.00;;;;;12.44;62.70;102117.19;2070197;28;47735;-56
2022/02/23 03:39:57;;;;;;;;;7.00;7.00;;;;;12.44;62.68;102119.84;2071503;28;47857;-55
2022/02/23 03:40:58;;;;;;;;;7.00;4.50;;;;;12.44;62.77;102119.84;2071257;28;48140;-56
2022/02/23 03:41:58;;;;;;;;;7.00;4.67;;;;;12.43;62.72;102121.63;2071390;28;47679;-57
2022/02/23 03:42:59;;;;;;;;;6.00;6.00;;;;;12.44;62.71;102125.19;2061921;28;47420;-54
2022/02/23 03:44:00;;;;;;;;;5.00;5.00;;;;;12.44;62.89;102120.75;2053603;28;47812;-55
2022/02/23 03:45:00;;;;;;;;;8.33;4.33;;;;;12.44;62.63;102120.75;2070387;28;46867;-55
2022/02/23 03:46:01;;;;;;;;;5.00;4.67;;;;;12.44;62.61;102117.19;2071862;28;47817;-56
2022/02/23 03:47:01;;;;;;;;;8.00;5.00;;;;;12.44;62.71;102119.84;2071471;28;47505;-56
2022/02/23 03:48:02;;;;;;;;;4.33;4.33;;;;;12.43;62.63;102121.63;2070942;28;48033;-55
2022/02/23 03:49:02;;;;;;;;;4.33;4.00;;;;;12.43;62.68;102121.63;2070906;28;47048;-57
2022/02/23 03:50:03;;;;;;;;;6.00;5.67;;;;;12.43;62.58;102121.63;2070853;28;47780;-58
2022/02/23 03:51:04;;;;;;;;;4.67;4.67;;;;;12.42;62.38;102118.97;2071360;28;47629;-55
2022/02/23 03:52:05;;;;;;;;;5.67;5.67;;;;;12.42;62.78;102119.88;2071187;28;46049;-56
2022/02/23 03:53:05;;;;;;;;;5.00;5.00;;;;;12.41;62.61;102117.22;2068046;28;46392;-55
2022/02/23 03:54:06;;;;;;;;;5.00;5.00;;;;;12.40;62.55;102112.78;2064601;28;47400;-56
2022/02/23 03:55:07;;;;;;;;;7.00;5.33;;;;;12.39;62.58;102117.25;2071612;28;47830;-54
2022/02/23 03:56:38;;;;;;;;;5.25;3.25;;;;;12.40;62.82;102115.47;2071317;28;47737;-55
2022/02/23 03:57:28;;;;;;;;;6.25;6.00;;;;;12.38;62.76;102120.78;2070997;28;47218;-55
2022/02/23 03:58:28;;;;;;;;;7.00;4.00;;;;;12.39;62.77;102119.91;2071284;28;47639;-55
2022/02/23 03:59:29;;;;;;;;;4.00;4.00;;;;;12.39;62.64;102125.22;2071491;28;46529;-56
2022/02/23 04:00:30;;;;;;;;;4.25;3.25;;;;;12.38;62.64;102120.78;2071246;28;48116;-55
2022/02/23 04:01:30;;;;;;;;;6.33;6.33;;;;;12.37;62.65;102119.91;2071441;28;47897;-56
2022/02/23 04:02:31;;;;;;;;;10.00;5.67;;;;;12.38;62.61;102115.47;2071222;28;47674;-56
2022/02/23 04:03:31;;;;;;;;;9.33;7.33;;;;;12.36;62.70;102117.25;2071514;28;47279;-55
2022/02/23 04:04:31;;;;;;;;;6.33;4.33;;;;;12.36;62.60;102110.16;2070981;28;47592;-55
2022/02/23 04:05:32;;;;;;;;;8.00;5.00;;;;;12.36;62.72;102118.16;2071439;28;48047;-57
2022/02/23 04:06:33;;;;;;;;;6.33;3.67;;;;;12.35;62.59;102118.16;2071410;28;47801;-58
2022/02/23 04:07:34;;;;;;;;;5.25;4.25;;;;;12.35;62.67;102112.84;2071320;28;48037;-57
2022/02/23 04:08:34;;;;;;;;;6.00;4.67;;;;;12.33;62.55;102115.50;2071067;28;47411;-56
2022/02/23 04:09:35;;;;;;;;;4.00;4.00;;;;;12.32;62.68;102118.16;2071126;28;47771;-54
2022/02/23 04:10:36;;;;;;;;;5.00;4.00;;;;;12.31;62.74;102119.94;2071401;28;47524;-56
2022/02/23 04:11:37;;;;;;;;;5.50;3.50;;;;;12.31;62.92;102116.38;2071591;28;47390;-57
2022/02/23 04:12:37;;;;;;;;;4.50;4.00;;;;;12.30;62.69;102114.63;2071199;28;48043;-55
2022/02/23 04:13:38;;;;;;;;;6.33;5.00;;;;;12.30;62.90;102118.16;2071221;28;47327;-56
2022/02/23 04:14:38;;;;;;;;;6.00;6.00;;;;;12.31;62.72;102113.72;2071165;28;47484;-56
2022/02/23 04:15:38;;;;;;;;;5.67;4.00;;;;;12.30;62.59;102119.94;2071298;28;47303;-56
2022/02/23 04:16:39;;;;;;;;;4.00;4.00;;;;;12.31;62.89;102116.38;2071117;28;47615;-56
2022/02/23 04:17:39;;;;;;;;;5.33;4.67;;;;;12.31;62.65;102113.72;2070889;28;48046;-56
2022/02/23 04:18:41;;;;;;;;;5.67;3.67;;;;;12.29;62.52;102115.53;2070025;28;46281;-55
2022/02/23 04:19:41;;;;;;;;;4.00;4.00;;;;;12.30;62.69;102117.28;2070174;28;47626;-56
2022/02/23 04:20:42;;;;;;;;;6.00;4.67;;;;;12.29;62.52;102115.53;2061809;28;47896;-55
2022/02/23 04:21:43;;;;;;;;;5.00;5.00;;;;;12.29;62.61;102118.19;2062007;28;47498;-57
2022/02/23 04:22:44;;;;;;;;;9.33;8.33;;;;;12.28;62.58;102106.66;2071181;28;47618;-57
2022/02/23 04:23:45;;;;;;;;;8.00;8.00;;;;;12.27;62.51;102109.34;2071300;28;47859;-57
2022/02/23 04:24:45;;;;;;;;;5.00;4.25;;;;;12.27;62.54;102107.56;2070743;28;47538;-57
2022/02/23 04:25:46;;;;;;;;;8.00;5.00;;;;;12.26;62.43;102108.44;2069737;28;47482;-59
2022/02/23 04:26:46;;;;;;;;;6.33;6.00;;;;;12.25;62.64;102108.47;2070979;28;47745;-57
2022/02/23 04:27:47;;;;;;;;;3.00;3.00;;;;;12.24;62.71;102109.34;2071439;28;47255;-56
2022/02/23 04:28:48;;;;;;;;;6.67;6.00;;;;;12.24;62.71;102109.34;2071020;28;47631;-55
2022/02/23 04:29:48;;;;;;;;;6.50;4.75;;;;;12.23;62.47;102107.59;2071105;28;48217;-56
2022/02/23 04:30:49;;;;;;;;;7.33;4.00;;;;;12.22;62.55;102112.03;2069829;28;47247;-55
2022/02/23 04:31:49;;;;;;;;;2.67;2.67;;;;;12.22;62.64;102103.16;2069798;28;47387;-56
2022/02/23 04:32:50;;;;;;;;;5.00;5.00;;;;;12.22;62.67;102108.50;2071053;28;48067;-56
2022/02/23 04:33:51;;;;;;;;;6.00;5.50;;;;;12.21;62.71;102098.75;2071328;28;47858;-55
2022/02/23 04:34:53;;;;;;;;;6.00;5.25;;;;;12.22;62.64;102111.16;2061476;28;47356;-54
2022/02/23 04:35:54;;;;;;;;;8.75;6.75;;;;;12.21;62.51;102102.28;2061928;28;48155;-54
2022/02/23 04:36:55;;;;;;;;;5.00;5.00;;;;;12.20;62.79;102105.84;2070789;28;47829;-55
2022/02/23 04:37:55;;;;;;;;;7.67;7.00;;;;;12.20;62.59;102103.19;2070836;28;47412;-55
2022/02/23 04:38:55;;;;;;;;;9.00;5.00;;;;;12.18;62.74;102107.59;2070590;28;47601;-56
2022/02/23 04:39:58;;;;;;;;;7.33;4.33;;;;;12.18;62.80;102102.28;2071220;28;47010;-55
2022/02/23 04:40:58;;;;;;;;;7.00;5.50;;;;;12.17;62.70;102108.50;2063071;28;45997;-55
2022/02/23 04:41:59;;;;;;;;;4.00;4.00;;;;;12.17;62.76;102116.47;2067658;28;47872;-54